Pilot Knob, Texas
Current Conditions -  °F | °C
As of 6:04 AM on Thursday 29 Jan 2015 (Local Time) from KAUS Reporting Station
Moderate Fog Moderate Fog  
Wind Chill: 53°   Ceiling: 200
Heat Index: 53°   Visibility: 0.5mi
Dew Point: 53°   Wind: 6mph
Humidity: 100%   Direction: 180°S
Pressure: 30.15"   Gusts: NA
Location:  30.1791°N, 97.7294°W
Report Text: KAUS 291204Z 18005KT 1/2SM R17R/1800V2400FT FG VV002 12/12 A3015 RMK AO2 T01170117
Loading
Personal Weather Stations






























Interactive Weather Map New forecast layout! Learn more

10-Day Weather Forecast

Advertisements
Track Severe Weather on mobile